sensor_id;sensor_type;location;lat;lon;timestamp;temperature;humidity
66920;DHT22;53831;52.090;17.026;2023-07-30T00:00:19;18.30;99.90
66920;DHT22;53831;52.090;17.026;2023-07-30T00:01:19;18.30;99.90
66920;DHT22;53831;52.090;17.026;2023-07-30T00:02:20;18.30;99.90
66920;DHT22;53831;52.090;17.026;2023-07-30T00:03:21;18.30;99.90
66920;DHT22;53831;52.090;17.026;2023-07-30T00:04:22;18.30;99.90
66920;DHT22;53831;52.090;17.026;2023-07-30T00:05:22;18.30;99.90
66920;DHT22;53831;52.090;17.026;2023-07-30T00:06:23;18.30;99.90
66920;DHT22;53831;52.090;17.026;2023-07-30T00:07:23;18.30;99.90
66920;DHT22;53831;52.090;17.026;2023-07-30T00:08:24;18.20;99.90
66920;DHT22;53831;52.090;17.026;2023-07-30T00:09:25;18.20;99.90
66920;DHT22;53831;52.090;17.026;2023-07-30T00:10:25;18.20;99.90
66920;DHT22;53831;52.090;17.026;2023-07-30T00:11:26;18.10;99.90
66920;DHT22;53831;52.090;17.026;2023-07-30T00:12:27;18.10;99.90
66920;DHT22;53831;52.090;17.026;2023-07-30T00:13:27;18.10;99.90
66920;DHT22;53831;52.090;17.026;2023-07-30T00:14:28;18.10;99.90
66920;DHT22;53831;52.090;17.026;2023-07-30T00:15:28;18.00;99.90
66920;DHT22;53831;52.090;17.026;2023-07-30T00:16:29;18.00;99.90
66920;DHT22;53831;52.090;17.026;2023-07-30T00:17:30;18.00;99.90
66920;DHT22;53831;52.090;17.026;2023-07-30T00:18:30;18.00;99.90
66920;DHT22;53831;52.090;17.026;2023-07-30T00:19:31;18.00;99.90
66920;DHT22;53831;52.090;17.026;2023-07-30T00:20:33;18.00;99.90
66920;DHT22;53831;52.090;17.026;2023-07-30T00:21:34;18.00;99.90
66920;DHT22;53831;52.090;17.026;2023-07-30T00:22:35;18.00;99.90
66920;DHT22;53831;52.090;17.026;2023-07-30T00:23:35;17.90;99.90
66920;DHT22;53831;52.090;17.026;2023-07-30T00:24:36;17.90;99.90
66920;DHT22;53831;52.090;17.026;2023-07-30T00:25:37;17.90;99.90
66920;DHT22;53831;52.090;17.026;2023-07-30T00:26:37;17.90;99.90
66920;DHT22;53831;52.090;17.026;2023-07-30T00:27:38;17.90;99.90
66920;DHT22;53831;52.090;17.026;2023-07-30T00:28:40;17.90;99.90
66920;DHT22;53831;52.090;17.026;2023-07-30T00:29:40;17.90;99.90
66920;DHT22;53831;52.090;17.026;2023-07-30T00:30:41;17.90;99.90
66920;DHT22;53831;52.090;17.026;2023-07-30T00:31:42;17.80;99.90
66920;DHT22;53831;52.090;17.026;2023-07-30T00:32:42;17.90;99.90
66920;DHT22;53831;52.090;17.026;2023-07-30T00:33:44;17.80;99.90
66920;DHT22;53831;52.090;17.026;2023-07-30T00:34:44;17.80;99.90
66920;DHT22;53831;52.090;17.026;2023-07-30T00:35:45;17.80;99.90
66920;DHT22;53831;52.090;17.026;2023-07-30T00:36:46;17.80;99.90
66920;DHT22;53831;52.090;17.026;2023-07-30T00:37:47;17.80;99.90
66920;DHT22;53831;52.090;17.026;2023-07-30T00:38:48;17.70;99.90
66920;DHT22;53831;52.090;17.026;2023-07-30T00:39:48;17.70;99.90
66920;DHT22;53831;52.090;17.026;2023-07-30T00:40:49;17.70;99.90
66920;DHT22;53831;52.090;17.026;2023-07-30T00:41:49;17.70;99.90
66920;DHT22;53831;52.090;17.026;2023-07-30T00:42:51;17.70;99.90
66920;DHT22;53831;52.090;17.026;2023-07-30T00:43:51;17.70;99.90
66920;DHT22;53831;52.090;17.026;2023-07-30T00:44:54;17.70;99.90
66920;DHT22;53831;52.090;17.026;2023-07-30T00:45:55;17.70;99.90
66920;DHT22;53831;52.090;17.026;2023-07-30T00:46:55;17.70;99.90
66920;DHT22;53831;52.090;17.026;2023-07-30T00:47:56;17.70;99.90
66920;DHT22;53831;52.090;17.026;2023-07-30T00:48:57;17.60;99.90
66920;DHT22;53831;52.090;17.026;2023-07-30T00:49:57;17.60;99.90
66920;DHT22;53831;52.090;17.026;2023-07-30T00:51:01;17.60;99.90
66920;DHT22;53831;52.090;17.026;2023-07-30T00:52:01;17.60;99.90
66920;DHT22;53831;52.090;17.026;2023-07-30T00:53:03;17.60;99.90
66920;DHT22;53831;52.090;17.026;2023-07-30T00:54:03;17.60;99.90
66920;DHT22;53831;52.090;17.026;2023-07-30T00:55:04;17.50;99.90
66920;DHT22;53831;52.090;17.026;2023-07-30T00:56:06;17.50;99.90
66920;DHT22;53831;52.090;17.026;2023-07-30T00:57:07;17.50;99.90
66920;DHT22;53831;52.090;17.026;2023-07-30T00:58:09;17.50;99.90
66920;DHT22;53831;52.090;17.026;2023-07-30T00:59:10;17.50;99.90
66920;DHT22;53831;52.090;17.026;2023-07-30T01:00:11;17.40;99.90
66920;DHT22;53831;52.090;17.026;2023-07-30T01:01:11;17.50;99.90
66920;DHT22;53831;52.090;17.026;2023-07-30T01:02:12;17.50;99.90
66920;DHT22;53831;52.090;17.026;2023-07-30T01:03:13;17.40;99.90
66920;DHT22;53831;52.090;17.026;2023-07-30T01:04:14;17.40;99.90
66920;DHT22;53831;52.090;17.026;2023-07-30T01:05:15;17.40;99.90
66920;DHT22;53831;52.090;17.026;2023-07-30T01:06:16;17.40;99.90
66920;DHT22;53831;52.090;17.026;2023-07-30T01:07:16;17.40;99.90
66920;DHT22;53831;52.090;17.026;2023-07-30T01:08:17;17.40;99.90
66920;DHT22;53831;52.090;17.026;2023-07-30T01:09:18;17.40;99.90
66920;DHT22;53831;52.090;17.026;2023-07-30T01:10:18;17.30;99.90
66920;DHT22;53831;52.090;17.026;2023-07-30T01:11:19;17.30;99.90
66920;DHT22;53831;52.090;17.026;2023-07-30T01:12:20;17.30;99.90
66920;DHT22;53831;52.090;17.026;2023-07-30T01:13:21;17.30;99.90
66920;DHT22;53831;52.090;17.026;2023-07-30T01:14:22;17.30;99.90
66920;DHT22;53831;52.090;17.026;2023-07-30T01:15:23;17.30;99.90
66920;DHT22;53831;52.090;17.026;2023-07-30T01:16:23;17.20;99.90
66920;DHT22;53831;52.090;17.026;2023-07-30T01:17:24;17.20;99.90
66920;DHT22;53831;52.090;17.026;2023-07-30T01:18:25;17.20;99.90
66920;DHT22;53831;52.090;17.026;2023-07-30T01:19:25;17.20;99.90
66920;DHT22;53831;52.090;17.026;2023-07-30T01:20:29;17.10;99.90
66920;DHT22;53831;52.090;17.026;2023-07-30T01:21:31;17.10;99.90
66920;DHT22;53831;52.090;17.026;2023-07-30T01:22:32;17.10;99.90
66920;DHT22;53831;52.090;17.026;2023-07-30T01:23:33;17.10;99.90
66920;DHT22;53831;52.090;17.026;2023-07-30T01:24:33;17.10;99.90
66920;DHT22;53831;52.090;17.026;2023-07-30T01:25:35;17.10;99.90
66920;DHT22;53831;52.090;17.026;2023-07-30T01:26:51;17.10;99.90
66920;DHT22;53831;52.090;17.026;2023-07-30T01:27:53;17.00;99.90
66920;DHT22;53831;52.090;17.026;2023-07-30T01:28:56;17.00;99.90
66920;DHT22;53831;52.090;17.026;2023-07-30T01:30:15;17.00;99.90
66920;DHT22;53831;52.090;17.026;2023-07-30T01:31:17;17.00;99.90
66920;DHT22;53831;52.090;17.026;2023-07-30T01:32:18;17.00;99.90
66920;DHT22;53831;52.090;17.026;2023-07-30T01:33:20;17.00;99.90
66920;DHT22;53831;52.090;17.026;2023-07-30T01:34:21;17.00;99.90
66920;DHT22;53831;52.090;17.026;2023-07-30T01:35:26;17.00;99.90
66920;DHT22;53831;52.090;17.026;2023-07-30T01:36:27;16.90;99.90
66920;DHT22;53831;52.090;17.026;2023-07-30T01:37:29;16.90;99.90
66920;DHT22;53831;52.090;17.026;2023-07-30T01:38:30;17.00;99.90
66920;DHT22;53831;52.090;17.026;2023-07-30T01:39:33;16.90;99.90
66920;DHT22;53831;52.090;17.026;2023-07-30T01:40:34;17.00;99.90
66920;DHT22;53831;52.090;17.026;2023-07-30T01:41:34;17.00;99.90
66920;DHT22;53831;52.090;17.026;2023-07-30T01:42:35;16.90;99.90
66920;DHT22;53831;52.090;17.026;2023-07-30T01:43:36;16.90;99.90
66920;DHT22;53831;52.090;17.026;2023-07-30T01:44:37;16.90;99.90
66920;DHT22;53831;52.090;17.026;2023-07-30T01:45:38;16.90;99.90
66920;DHT22;53831;52.090;17.026;2023-07-30T01:46:40;16.80;99.90
66920;DHT22;53831;52.090;17.026;2023-07-30T01:47:41;16.80;99.90
66920;DHT22;53831;52.090;17.026;2023-07-30T01:48:41;16.90;99.90
66920;DHT22;53831;52.090;17.026;2023-07-30T01:49:42;16.80;99.90
66920;DHT22;53831;52.090;17.026;2023-07-30T01:50:42;16.80;99.90
66920;DHT22;53831;52.090;17.026;2023-07-30T01:51:43;16.80;99.90
66920;DHT22;53831;52.090;17.026;2023-07-30T01:52:44;16.90;99.90
66920;DHT22;53831;52.090;17.026;2023-07-30T01:53:44;16.80;99.90
66920;DHT22;53831;52.090;17.026;2023-07-30T01:54:45;16.80;99.90
66920;DHT22;53831;52.090;17.026;2023-07-30T01:55:46;16.80;99.90
66920;DHT22;53831;52.090;17.026;2023-07-30T01:56:47;16.90;99.90
66920;DHT22;53831;52.090;17.026;2023-07-30T01:57:47;16.90;99.90
66920;DHT22;53831;52.090;17.026;2023-07-30T01:58:48;16.90;99.90
66920;DHT22;53831;52.090;17.026;2023-07-30T01:59:49;16.90;99.90
66920;DHT22;53831;52.090;17.026;2023-07-30T02:00:49;17.00;99.90
66920;DHT22;53831;52.090;17.026;2023-07-30T02:01:50;17.00;99.90
66920;DHT22;53831;52.090;17.026;2023-07-30T02:02:50;17.00;99.90
66920;DHT22;53831;52.090;17.026;2023-07-30T02:03:51;17.00;99.90
66920;DHT22;53831;52.090;17.026;2023-07-30T02:04:52;17.00;99.90
66920;DHT22;53831;52.090;17.026;2023-07-30T02:05:52;17.00;99.90
66920;DHT22;53831;52.090;17.026;2023-07-30T02:06:53;17.00;99.90
66920;DHT22;53831;52.090;17.026;2023-07-30T02:07:54;17.10;99.90
66920;DHT22;53831;52.090;17.026;2023-07-30T02:08:54;17.00;99.90
66920;DHT22;53831;52.090;17.026;2023-07-30T02:09:55;17.10;99.90
66920;DHT22;53831;52.090;17.026;2023-07-30T02:10:56;17.10;99.90
66920;DHT22;53831;52.090;17.026;2023-07-30T02:11:57;17.10;99.90
66920;DHT22;53831;52.090;17.026;2023-07-30T02:12:58;17.10;99.90
66920;DHT22;53831;52.090;17.026;2023-07-30T02:13:58;17.10;99.90
66920;DHT22;53831;52.090;17.026;2023-07-30T02:14:59;17.10;99.90
66920;DHT22;53831;52.090;17.026;2023-07-30T02:15:59;17.10;99.90
66920;DHT22;53831;52.090;17.026;2023-07-30T02:17:00;17.10;99.90
66920;DHT22;53831;52.090;17.026;2023-07-30T02:18:01;17.10;99.90
66920;DHT22;53831;52.090;17.026;2023-07-30T02:19:01;17.00;99.90
66920;DHT22;53831;52.090;17.026;2023-07-30T02:20:02;17.00;99.90
66920;DHT22;53831;52.090;17.026;2023-07-30T02:21:03;17.00;99.90
66920;DHT22;53831;52.090;17.026;2023-07-30T02:22:03;17.00;99.90
66920;DHT22;53831;52.090;17.026;2023-07-30T02:23:04;17.00;99.90
66920;DHT22;53831;52.090;17.026;2023-07-30T02:24:05;16.90;99.90
66920;DHT22;53831;52.090;17.026;2023-07-30T02:25:10;16.90;99.90
66920;DHT22;53831;52.090;17.026;2023-07-30T02:26:11;16.90;99.90
66920;DHT22;53831;52.090;17.026;2023-07-30T02:27:12;16.90;99.90
66920;DHT22;53831;52.090;17.026;2023-07-30T02:28:13;16.90;99.90
66920;DHT22;53831;52.090;17.026;2023-07-30T02:29:13;16.90;99.90
66920;DHT22;53831;52.090;17.026;2023-07-30T02:30:14;16.80;99.90
66920;DHT22;53831;52.090;17.026;2023-07-30T02:31:14;16.80;99.90
66920;DHT22;53831;52.090;17.026;2023-07-30T02:32:15;16.80;99.90
66920;DHT22;53831;52.090;17.026;2023-07-30T02:33:16;16.80;99.90
66920;DHT22;53831;52.090;17.026;2023-07-30T02:34:16;16.80;99.90
66920;DHT22;53831;52.090;17.026;2023-07-30T02:35:18;16.70;99.90
66920;DHT22;53831;52.090;17.026;2023-07-30T02:36:19;16.80;99.90
66920;DHT22;53831;52.090;17.026;2023-07-30T02:37:19;16.70;99.90
66920;DHT22;53831;52.090;17.026;2023-07-30T02:38:20;16.70;99.90
66920;DHT22;53831;52.090;17.026;2023-07-30T02:39:20;16.70;99.90
66920;DHT22;53831;52.090;17.026;2023-07-30T02:40:21;16.70;99.90
66920;DHT22;53831;52.090;17.026;2023-07-30T02:41:22;16.70;99.90
66920;DHT22;53831;52.090;17.026;2023-07-30T02:42:22;16.70;99.90
66920;DHT22;53831;52.090;17.026;2023-07-30T02:43:23;16.70;99.90
66920;DHT22;53831;52.090;17.026;2023-07-30T02:44:23;16.70;99.90
66920;DHT22;53831;52.090;17.026;2023-07-30T02:45:25;16.70;99.90
66920;DHT22;53831;52.090;17.026;2023-07-30T02:46:25;16.70;99.90
66920;DHT22;53831;52.090;17.026;2023-07-30T02:47:26;16.70;99.90
66920;DHT22;53831;52.090;17.026;2023-07-30T02:48:26;16.70;99.90
66920;DHT22;53831;52.090;17.026;2023-07-30T02:49:27;16.70;99.90
66920;DHT22;53831;52.090;17.026;2023-07-30T02:50:30;16.70;99.90
66920;DHT22;53831;52.090;17.026;2023-07-30T02:51:31;16.70;99.90
66920;DHT22;53831;52.090;17.026;2023-07-30T02:52:31;16.70;99.90
66920;DHT22;53831;52.090;17.026;2023-07-30T02:53:32;16.70;99.90
66920;DHT22;53831;52.090;17.026;2023-07-30T02:54:32;16.80;99.90
66920;DHT22;53831;52.090;17.026;2023-07-30T02:55:33;16.70;99.90
66920;DHT22;53831;52.090;17.026;2023-07-30T02:56:33;16.70;99.90
66920;DHT22;53831;52.090;17.026;2023-07-30T02:57:34;16.70;99.90
66920;DHT22;53831;52.090;17.026;2023-07-30T02:58:35;16.70;99.90
66920;DHT22;53831;52.090;17.026;2023-07-30T02:59:35;16.70;99.90
66920;DHT22;53831;52.090;17.026;2023-07-30T03:00:38;16.60;99.90
66920;DHT22;53831;52.090;17.026;2023-07-30T03:01:38;16.60;99.90
66920;DHT22;53831;52.090;17.026;2023-07-30T03:02:40;16.60;99.90
66920;DHT22;53831;52.090;17.026;2023-07-30T03:03:40;16.60;99.90
66920;DHT22;53831;52.090;17.026;2023-07-30T03:04:41;16.50;99.90
66920;DHT22;53831;52.090;17.026;2023-07-30T03:05:42;16.50;99.90
66920;DHT22;53831;52.090;17.026;2023-07-30T03:06:43;16.60;99.90
66920;DHT22;53831;52.090;17.026;2023-07-30T03:07:43;16.50;99.90
66920;DHT22;53831;52.090;17.026;2023-07-30T03:08:44;16.50;99.90
66920;DHT22;53831;52.090;17.026;2023-07-30T03:09:45;16.50;99.90
66920;DHT22;53831;52.090;17.026;2023-07-30T03:10:46;16.60;99.90
66920;DHT22;53831;52.090;17.026;2023-07-30T03:11:46;16.50;99.90
66920;DHT22;53831;52.090;17.026;2023-07-30T03:12:48;16.60;99.90
66920;DHT22;53831;52.090;17.026;2023-07-30T03:13:48;16.60;99.90
66920;DHT22;53831;52.090;17.026;2023-07-30T03:14:49;16.60;99.90
66920;DHT22;53831;52.090;17.026;2023-07-30T03:15:49;16.60;99.90
66920;DHT22;53831;52.090;17.026;2023-07-30T03:16:50;16.60;99.90
66920;DHT22;53831;52.090;17.026;2023-07-30T03:17:51;16.60;99.90
66920;DHT22;53831;52.090;17.026;2023-07-30T03:18:51;16.60;99.90
66920;DHT22;53831;52.090;17.026;2023-07-30T03:19:52;16.60;99.90
66920;DHT22;53831;52.090;17.026;2023-07-30T03:20:58;16.60;99.90
66920;DHT22;53831;52.090;17.026;2023-07-30T03:21:58;16.70;99.90
66920;DHT22;53831;52.090;17.026;2023-07-30T03:22:59;16.70;99.90
66920;DHT22;53831;52.090;17.026;2023-07-30T03:24:00;16.70;99.90
66920;DHT22;53831;52.090;17.026;2023-07-30T03:25:00;16.70;99.90
66920;DHT22;53831;52.090;17.026;2023-07-30T03:26:01;16.70;99.90
66920;DHT22;53831;52.090;17.026;2023-07-30T03:27:03;16.70;99.90
66920;DHT22;53831;52.090;17.026;2023-07-30T03:28:04;16.70;99.90
66920;DHT22;53831;52.090;17.026;2023-07-30T03:29:04;16.70;99.90
66920;DHT22;53831;52.090;17.026;2023-07-30T03:30:05;16.70;99.90
66920;DHT22;53831;52.090;17.026;2023-07-30T03:31:06;16.70;99.90
66920;DHT22;53831;52.090;17.026;2023-07-30T03:32:07;16.70;99.90
66920;DHT22;53831;52.090;17.026;2023-07-30T03:33:08;16.70;99.90
66920;DHT22;53831;52.090;17.026;2023-07-30T03:34:08;16.70;99.90
66920;DHT22;53831;52.090;17.026;2023-07-30T03:35:09;16.70;99.90
66920;DHT22;53831;52.090;17.026;2023-07-30T03:36:10;16.70;99.90
66920;DHT22;53831;52.090;17.026;2023-07-30T03:37:11;16.70;99.90
66920;DHT22;53831;52.090;17.026;2023-07-30T03:38:11;16.70;99.90
66920;DHT22;53831;52.090;17.026;2023-07-30T03:39:12;16.70;99.90
66920;DHT22;53831;52.090;17.026;2023-07-30T03:40:12;16.70;99.90
66920;DHT22;53831;52.090;17.026;2023-07-30T03:41:13;16.70;99.90
66920;DHT22;53831;52.090;17.026;2023-07-30T03:42:14;16.70;99.90
66920;DHT22;53831;52.090;17.026;2023-07-30T03:43:14;16.80;99.90
66920;DHT22;53831;52.090;17.026;2023-07-30T03:44:15;16.80;99.90
66920;DHT22;53831;52.090;17.026;2023-07-30T03:45:16;16.80;99.90
66920;DHT22;53831;52.090;17.026;2023-07-30T03:46:16;16.80;99.90
66920;DHT22;53831;52.090;17.026;2023-07-30T03:47:20;16.80;99.90
66920;DHT22;53831;52.090;17.026;2023-07-30T03:48:21;16.80;99.90
66920;DHT22;53831;52.090;17.026;2023-07-30T03:49:21;16.80;99.90
66920;DHT22;53831;52.090;17.026;2023-07-30T03:50:22;16.80;99.90
66920;DHT22;53831;52.090;17.026;2023-07-30T03:51:22;16.80;99.90
66920;DHT22;53831;52.090;17.026;2023-07-30T03:52:24;16.80;99.90
66920;DHT22;53831;52.090;17.026;2023-07-30T03:53:25;16.90;99.90
66920;DHT22;53831;52.090;17.026;2023-07-30T03:54:27;16.90;99.90
66920;DHT22;53831;52.090;17.026;2023-07-30T03:55:28;16.90;99.90
66920;DHT22;53831;52.090;17.026;2023-07-30T03:56:29;16.80;99.90
66920;DHT22;53831;52.090;17.026;2023-07-30T03:57:30;16.80;99.90
66920;DHT22;53831;52.090;17.026;2023-07-30T03:58:30;16.80;99.90
66920;DHT22;53831;52.090;17.026;2023-07-30T03:59:31;16.90;99.90
66920;DHT22;53831;52.090;17.026;2023-07-30T04:00:32;16.90;99.90
66920;DHT22;53831;52.090;17.026;2023-07-30T04:01:32;16.90;99.90
66920;DHT22;53831;52.090;17.026;2023-07-30T04:02:34;16.90;99.90
66920;DHT22;53831;52.090;17.026;2023-07-30T04:03:35;16.90;99.90
66920;DHT22;53831;52.090;17.026;2023-07-30T04:04:36;17.00;99.90
66920;DHT22;53831;52.090;17.026;2023-07-30T04:05:36;17.00;99.90
66920;DHT22;53831;52.090;17.026;2023-07-30T04:06:37;16.90;99.90
66920;DHT22;53831;52.090;17.026;2023-07-30T04:07:37;16.90;99.90
66920;DHT22;53831;52.090;17.026;2023-07-30T04:08:38;16.80;99.90
66920;DHT22;53831;52.090;17.026;2023-07-30T04:09:39;16.90;99.90
66920;DHT22;53831;52.090;17.026;2023-07-30T04:10:39;16.90;99.90
66920;DHT22;53831;52.090;17.026;2023-07-30T04:11:40;17.00;99.90
66920;DHT22;53831;52.090;17.026;2023-07-30T04:12:40;17.00;99.90
66920;DHT22;53831;52.090;17.026;2023-07-30T04:13:41;17.00;99.90
66920;DHT22;53831;52.090;17.026;2023-07-30T04:14:42;17.00;99.90
66920;DHT22;53831;52.090;17.026;2023-07-30T04:15:43;17.00;99.90
66920;DHT22;53831;52.090;17.026;2023-07-30T04:16:43;17.00;99.90
66920;DHT22;53831;52.090;17.026;2023-07-30T04:17:47;16.90;99.90
66920;DHT22;53831;52.090;17.026;2023-07-30T04:18:47;17.00;99.90
66920;DHT22;53831;52.090;17.026;2023-07-30T04:19:48;16.90;99.90
66920;DHT22;53831;52.090;17.026;2023-07-30T04:20:49;16.90;99.90
66920;DHT22;53831;52.090;17.026;2023-07-30T04:21:50;17.00;99.90
66920;DHT22;53831;52.090;17.026;2023-07-30T04:22:52;17.00;99.90
66920;DHT22;53831;52.090;17.026;2023-07-30T04:23:53;16.90;99.90
66920;DHT22;53831;52.090;17.026;2023-07-30T04:24:54;17.00;99.90
66920;DHT22;53831;52.090;17.026;2023-07-30T04:25:54;17.00;99.90
66920;DHT22;53831;52.090;17.026;2023-07-30T04:26:55;17.00;99.90
66920;DHT22;53831;52.090;17.026;2023-07-30T04:27:56;17.00;99.90
66920;DHT22;53831;52.090;17.026;2023-07-30T04:28:57;16.90;99.90
66920;DHT22;53831;52.090;17.026;2023-07-30T04:29:57;16.80;99.90
66920;DHT22;53831;52.090;17.026;2023-07-30T04:30:59;16.80;99.90
66920;DHT22;53831;52.090;17.026;2023-07-30T04:32:02;16.80;99.90
66920;DHT22;53831;52.090;17.026;2023-07-30T04:33:03;16.80;99.90
66920;DHT22;53831;52.090;17.026;2023-07-30T04:34:04;16.70;99.90
66920;DHT22;53831;52.090;17.026;2023-07-30T04:35:05;16.70;99.90
66920;DHT22;53831;52.090;17.026;2023-07-30T04:36:06;16.70;99.90
66920;DHT22;53831;52.090;17.026;2023-07-30T04:37:08;16.70;99.90
66920;DHT22;53831;52.090;17.026;2023-07-30T04:38:09;16.60;99.90
66920;DHT22;53831;52.090;17.026;2023-07-30T04:39:10;16.70;99.90
66920;DHT22;53831;52.090;17.026;2023-07-30T04:40:13;16.70;99.90
66920;DHT22;53831;52.090;17.026;2023-07-30T04:41:14;16.70;99.90
66920;DHT22;53831;52.090;17.026;2023-07-30T04:42:20;16.60;99.90
66920;DHT22;53831;52.090;17.026;2023-07-30T04:43:21;16.70;99.90
66920;DHT22;53831;52.090;17.026;2023-07-30T04:44:27;16.70;99.90
66920;DHT22;53831;52.090;17.026;2023-07-30T04:45:32;16.70;99.90
66920;DHT22;53831;52.090;17.026;2023-07-30T04:46:33;16.70;99.90
66920;DHT22;53831;52.090;17.026;2023-07-30T04:47:34;16.80;99.90
66920;DHT22;53831;52.090;17.026;2023-07-30T04:48:35;16.80;99.90
66920;DHT22;53831;52.090;17.026;2023-07-30T04:49:35;16.80;99.90
66920;DHT22;53831;52.090;17.026;2023-07-30T04:50:38;16.80;99.90
66920;DHT22;53831;52.090;17.026;2023-07-30T04:51:40;16.80;99.90
66920;DHT22;53831;52.090;17.026;2023-07-30T04:52:42;16.80;99.90
66920;DHT22;53831;52.090;17.026;2023-07-30T04:53:43;16.80;99.90
66920;DHT22;53831;52.090;17.026;2023-07-30T04:54:43;16.80;99.90
66920;DHT22;53831;52.090;17.026;2023-07-30T04:55:44;16.80;99.90
66920;DHT22;53831;52.090;17.026;2023-07-30T04:56:44;16.80;99.90
66920;DHT22;53831;52.090;17.026;2023-07-30T04:57:45;16.90;99.90
66920;DHT22;53831;52.090;17.026;2023-07-30T04:58:45;16.90;99.90
66920;DHT22;53831;52.090;17.026;2023-07-30T04:59:46;16.90;99.90
66920;DHT22;53831;52.090;17.026;2023-07-30T05:00:47;16.90;99.90
66920;DHT22;53831;52.090;17.026;2023-07-30T05:01:47;16.90;99.90
66920;DHT22;53831;52.090;17.026;2023-07-30T05:02:48;17.00;99.90
66920;DHT22;53831;52.090;17.026;2023-07-30T05:03:49;17.00;99.90
66920;DHT22;53831;52.090;17.026;2023-07-30T05:04:49;17.00;99.90
66920;DHT22;53831;52.090;17.026;2023-07-30T05:05:50;17.00;99.90
66920;DHT22;53831;52.090;17.026;2023-07-30T05:06:50;17.00;99.90
66920;DHT22;53831;52.090;17.026;2023-07-30T05:07:51;17.00;99.90
66920;DHT22;53831;52.090;17.026;2023-07-30T05:08:52;17.00;99.90
66920;DHT22;53831;52.090;17.026;2023-07-30T05:09:52;17.10;99.90
66920;DHT22;53831;52.090;17.026;2023-07-30T05:10:53;17.10;99.90
66920;DHT22;53831;52.090;17.026;2023-07-30T05:11:54;17.10;99.90
66920;DHT22;53831;52.090;17.026;2023-07-30T05:12:54;17.20;99.90
66920;DHT22;53831;52.090;17.026;2023-07-30T05:13:55;17.20;99.90
66920;DHT22;53831;52.090;17.026;2023-07-30T05:14:55;17.30;99.90
66920;DHT22;53831;52.090;17.026;2023-07-30T05:15:56;17.30;99.90
66920;DHT22;53831;52.090;17.026;2023-07-30T05:16:56;17.30;99.90
66920;DHT22;53831;52.090;17.026;2023-07-30T05:17:57;17.40;99.90
66920;DHT22;53831;52.090;17.026;2023-07-30T05:18:58;17.40;99.90
66920;DHT22;53831;52.090;17.026;2023-07-30T05:19:58;17.50;99.90
66920;DHT22;53831;52.090;17.026;2023-07-30T05:20:59;17.50;99.90
66920;DHT22;53831;52.090;17.026;2023-07-30T05:21:59;17.50;99.90
66920;DHT22;53831;52.090;17.026;2023-07-30T05:23:02;17.60;99.90
66920;DHT22;53831;52.090;17.026;2023-07-30T05:24:02;17.60;99.90
66920;DHT22;53831;52.090;17.026;2023-07-30T05:25:03;17.70;99.90
66920;DHT22;53831;52.090;17.026;2023-07-30T05:26:04;17.70;99.90
66920;DHT22;53831;52.090;17.026;2023-07-30T05:27:04;17.80;99.90
66920;DHT22;53831;52.090;17.026;2023-07-30T05:28:05;17.80;99.90
66920;DHT22;53831;52.090;17.026;2023-07-30T05:29:06;17.90;99.90
66920;DHT22;53831;52.090;17.026;2023-07-30T05:30:06;17.90;99.90
66920;DHT22;53831;52.090;17.026;2023-07-30T05:31:07;17.90;99.90
66920;DHT22;53831;52.090;17.026;2023-07-30T05:32:08;17.90;99.90
66920;DHT22;53831;52.090;17.026;2023-07-30T05:33:09;18.00;99.90
66920;DHT22;53831;52.090;17.026;2023-07-30T05:34:09;18.00;99.90
66920;DHT22;53831;52.090;17.026;2023-07-30T05:35:10;18.00;99.90
66920;DHT22;53831;52.090;17.026;2023-07-30T05:36:10;18.00;99.90
66920;DHT22;53831;52.090;17.026;2023-07-30T05:37:11;18.00;99.90
66920;DHT22;53831;52.090;17.026;2023-07-30T05:38:12;18.00;99.90
66920;DHT22;53831;52.090;17.026;2023-07-30T05:39:12;18.00;99.90
66920;DHT22;53831;52.090;17.026;2023-07-30T05:40:13;18.00;99.90
66920;DHT22;53831;52.090;17.026;2023-07-30T05:41:13;18.00;99.90
66920;DHT22;53831;52.090;17.026;2023-07-30T05:42:14;18.10;99.90
66920;DHT22;53831;52.090;17.026;2023-07-30T05:43:15;18.10;99.90
66920;DHT22;53831;52.090;17.026;2023-07-30T05:44:15;18.20;99.90
66920;DHT22;53831;52.090;17.026;2023-07-30T05:45:16;18.20;99.90
66920;DHT22;53831;52.090;17.026;2023-07-30T05:46:16;18.20;99.90
66920;DHT22;53831;52.090;17.026;2023-07-30T05:47:17;18.30;99.90
66920;DHT22;53831;52.090;17.026;2023-07-30T05:48:17;18.40;99.90
66920;DHT22;53831;52.090;17.026;2023-07-30T05:49:19;18.40;99.90
66920;DHT22;53831;52.090;17.026;2023-07-30T05:50:19;18.50;99.90
66920;DHT22;53831;52.090;17.026;2023-07-30T05:51:20;18.50;99.90
66920;DHT22;53831;52.090;17.026;2023-07-30T05:52:20;18.50;99.90
66920;DHT22;53831;52.090;17.026;2023-07-30T05:53:21;18.50;99.90
66920;DHT22;53831;52.090;17.026;2023-07-30T05:54:25;18.60;99.90
66920;DHT22;53831;52.090;17.026;2023-07-30T05:55:25;18.60;99.90
66920;DHT22;53831;52.090;17.026;2023-07-30T05:56:26;18.60;99.90
66920;DHT22;53831;52.090;17.026;2023-07-30T05:57:26;18.60;99.90
66920;DHT22;53831;52.090;17.026;2023-07-30T05:58:27;18.60;99.90
66920;DHT22;53831;52.090;17.026;2023-07-30T05:59:27;18.60;99.90
66920;DHT22;53831;52.090;17.026;2023-07-30T06:00:28;18.60;99.90
66920;DHT22;53831;52.090;17.026;2023-07-30T06:01:29;18.70;99.90
66920;DHT22;53831;52.090;17.026;2023-07-30T06:02:29;18.70;99.90
66920;DHT22;53831;52.090;17.026;2023-07-30T06:03:30;18.80;99.90
66920;DHT22;53831;52.090;17.026;2023-07-30T06:04:30;18.80;99.90
66920;DHT22;53831;52.090;17.026;2023-07-30T06:05:31;18.80;99.90
66920;DHT22;53831;52.090;17.026;2023-07-30T06:06:32;18.90;99.90
66920;DHT22;53831;52.090;17.026;2023-07-30T06:07:32;18.90;99.90
66920;DHT22;53831;52.090;17.026;2023-07-30T06:09:06;19.00;99.90
66920;DHT22;53831;52.090;17.026;2023-07-30T06:10:06;18.90;99.90
66920;DHT22;53831;52.090;17.026;2023-07-30T06:11:07;18.90;99.90
66920;DHT22;53831;52.090;17.026;2023-07-30T06:12:08;19.00;99.90
66920;DHT22;53831;52.090;17.026;2023-07-30T06:13:08;19.00;99.90
66920;DHT22;53831;52.090;17.026;2023-07-30T06:14:09;19.00;99.90
66920;DHT22;53831;52.090;17.026;2023-07-30T06:15:09;19.10;99.90
66920;DHT22;53831;52.090;17.026;2023-07-30T06:16:10;19.10;99.90
66920;DHT22;53831;52.090;17.026;2023-07-30T06:17:10;19.20;99.90
66920;DHT22;53831;52.090;17.026;2023-07-30T06:18:11;19.20;99.90
66920;DHT22;53831;52.090;17.026;2023-07-30T06:19:12;19.20;99.90